sensor_id;sensor_type;location;lat;lon;timestamp;temperature;humidity
2391;DHT22;22957;50.824;4.360;2022-10-30T00:02:17;19.60;99.90
2391;DHT22;22957;50.824;4.360;2022-10-30T00:04:42;19.40;99.90
2391;DHT22;22957;50.824;4.360;2022-10-30T00:07:08;19.40;99.90
2391;DHT22;22957;50.824;4.360;2022-10-30T00:09:33;19.50;99.90
2391;DHT22;22957;50.824;4.360;2022-10-30T00:11:59;19.30;99.90
2391;DHT22;22957;50.824;4.360;2022-10-30T00:14:25;19.30;99.90
2391;DHT22;22957;50.824;4.360;2022-10-30T00:16:50;19.30;99.90
2391;DHT22;22957;50.824;4.360;2022-10-30T00:19:16;19.30;99.90
2391;DHT22;22957;50.824;4.360;2022-10-30T00:21:42;19.20;99.90
2391;DHT22;22957;50.824;4.360;2022-10-30T00:24:07;19.20;99.90
2391;DHT22;22957;50.824;4.360;2022-10-30T00:26:33;19.20;99.90
2391;DHT22;22957;50.824;4.360;2022-10-30T00:28:58;19.40;99.90
2391;DHT22;22957;50.824;4.360;2022-10-30T00:31:24;19.30;99.90
2391;DHT22;22957;50.824;4.360;2022-10-30T00:33:51;19.20;99.90
2391;DHT22;22957;50.824;4.360;2022-10-30T00:36:18;19.20;99.90
2391;DHT22;22957;50.824;4.360;2022-10-30T00:38:43;19.20;99.90
2391;DHT22;22957;50.824;4.360;2022-10-30T00:41:17;19.10;99.90
2391;DHT22;22957;50.824;4.360;2022-10-30T00:43:42;18.90;99.90
2391;DHT22;22957;50.824;4.360;2022-10-30T00:46:25;19.10;99.90
2391;DHT22;22957;50.824;4.360;2022-10-30T00:51:23;19.10;99.90
2391;DHT22;22957;50.824;4.360;2022-10-30T00:53:50;19.10;99.90
2391;DHT22;22957;50.824;4.360;2022-10-30T00:56:19;19.10;99.90
2391;DHT22;22957;50.824;4.360;2022-10-30T00:58:51;19.00;99.90
2391;DHT22;22957;50.824;4.360;2022-10-30T01:01:23;19.00;99.90
2391;DHT22;22957;50.824;4.360;2022-10-30T01:03:51;19.10;99.90
2391;DHT22;22957;50.824;4.360;2022-10-30T01:06:20;19.00;99.90
2391;DHT22;22957;50.824;4.360;2022-10-30T01:08:47;18.80;99.90
2391;DHT22;22957;50.824;4.360;2022-10-30T01:11:13;18.90;99.90
2391;DHT22;22957;50.824;4.360;2022-10-30T01:13:41;18.80;99.90
2391;DHT22;22957;50.824;4.360;2022-10-30T01:22:09;18.70;99.90
2391;DHT22;22957;50.824;4.360;2022-10-30T01:24:48;18.70;99.90
2391;DHT22;22957;50.824;4.360;2022-10-30T01:38:47;18.50;99.90
2391;DHT22;22957;50.824;4.360;2022-10-30T01:41:14;18.50;99.90
2391;DHT22;22957;50.824;4.360;2022-10-30T01:43:40;18.50;99.90
2391;DHT22;22957;50.824;4.360;2022-10-30T01:49:06;18.60;99.90
2391;DHT22;22957;50.824;4.360;2022-10-30T01:57:06;18.40;99.90
2391;DHT22;22957;50.824;4.360;2022-10-30T01:59:43;18.40;99.90
2391;DHT22;22957;50.824;4.360;2022-10-30T02:02:10;18.30;99.90
2391;DHT22;22957;50.824;4.360;2022-10-30T02:04:37;18.40;99.90
2391;DHT22;22957;50.824;4.360;2022-10-30T02:07:03;18.40;99.90
2391;DHT22;22957;50.824;4.360;2022-10-30T02:09:28;18.50;99.90
2391;DHT22;22957;50.824;4.360;2022-10-30T02:11:54;18.30;99.90
2391;DHT22;22957;50.824;4.360;2022-10-30T02:14:27;18.40;99.90
2391;DHT22;22957;50.824;4.360;2022-10-30T02:16:59;18.40;99.90
2391;DHT22;22957;50.824;4.360;2022-10-30T02:19:27;18.30;99.90
2391;DHT22;22957;50.824;4.360;2022-10-30T02:21:57;18.40;99.90
2391;DHT22;22957;50.824;4.360;2022-10-30T02:24:34;18.50;99.90
2391;DHT22;22957;50.824;4.360;2022-10-30T02:27:01;18.50;99.90
2391;DHT22;22957;50.824;4.360;2022-10-30T02:29:28;18.30;99.90
2391;DHT22;22957;50.824;4.360;2022-10-30T02:31:56;18.40;99.90
2391;DHT22;22957;50.824;4.360;2022-10-30T02:34:22;18.40;99.90
2391;DHT22;22957;50.824;4.360;2022-10-30T02:36:48;18.40;99.90
2391;DHT22;22957;50.824;4.360;2022-10-30T02:39:14;18.40;99.90
2391;DHT22;22957;50.824;4.360;2022-10-30T02:41:40;18.20;99.90
2391;DHT22;22957;50.824;4.360;2022-10-30T02:44:05;18.30;99.90
2391;DHT22;22957;50.824;4.360;2022-10-30T02:46:32;18.40;99.90
2391;DHT22;22957;50.824;4.360;2022-10-30T02:48:58;18.40;99.90
2391;DHT22;22957;50.824;4.360;2022-10-30T02:51:23;18.30;99.90
2391;DHT22;22957;50.824;4.360;2022-10-30T02:53:49;18.30;99.90
2391;DHT22;22957;50.824;4.360;2022-10-30T02:56:15;18.30;99.90
2391;DHT22;22957;50.824;4.360;2022-10-30T02:58:41;18.30;99.90
2391;DHT22;22957;50.824;4.360;2022-10-30T03:01:12;18.30;99.90
2391;DHT22;22957;50.824;4.360;2022-10-30T03:03:38;18.30;99.90
2391;DHT22;22957;50.824;4.360;2022-10-30T03:06:06;18.20;99.90
2391;DHT22;22957;50.824;4.360;2022-10-30T03:08:32;18.20;99.90
2391;DHT22;22957;50.824;4.360;2022-10-30T03:11:02;18.10;99.90
2391;DHT22;22957;50.824;4.360;2022-10-30T03:13:30;18.20;99.90
2391;DHT22;22957;50.824;4.360;2022-10-30T03:16:04;18.30;99.90
2391;DHT22;22957;50.824;4.360;2022-10-30T03:18:30;18.20;99.90
2391;DHT22;22957;50.824;4.360;2022-10-30T03:21:00;18.10;99.90
2391;DHT22;22957;50.824;4.360;2022-10-30T03:23:26;18.10;99.90
2391;DHT22;22957;50.824;4.360;2022-10-30T03:25:53;18.00;99.90
2391;DHT22;22957;50.824;4.360;2022-10-30T03:28:21;18.10;99.90
2391;DHT22;22957;50.824;4.360;2022-10-30T03:30:47;18.00;99.90
2391;DHT22;22957;50.824;4.360;2022-10-30T03:33:13;18.00;99.90
2391;DHT22;22957;50.824;4.360;2022-10-30T03:35:39;17.90;99.90
2391;DHT22;22957;50.824;4.360;2022-10-30T03:38:04;17.90;99.90
2391;DHT22;22957;50.824;4.360;2022-10-30T03:40:30;18.00;99.90
2391;DHT22;22957;50.824;4.360;2022-10-30T03:42:56;18.00;99.90
2391;DHT22;22957;50.824;4.360;2022-10-30T03:45:21;18.00;99.90
2391;DHT22;22957;50.824;4.360;2022-10-30T03:47:47;18.30;99.90
2391;DHT22;22957;50.824;4.360;2022-10-30T03:50:12;18.10;99.90
2391;DHT22;22957;50.824;4.360;2022-10-30T03:52:38;18.00;99.90
2391;DHT22;22957;50.824;4.360;2022-10-30T03:55:04;18.00;99.90
2391;DHT22;22957;50.824;4.360;2022-10-30T03:57:30;18.30;99.90
2391;DHT22;22957;50.824;4.360;2022-10-30T03:59:55;17.90;99.90
2391;DHT22;22957;50.824;4.360;2022-10-30T04:02:21;18.30;99.90
2391;DHT22;22957;50.824;4.360;2022-10-30T04:04:51;17.80;99.90
2391;DHT22;22957;50.824;4.360;2022-10-30T04:07:17;17.50;99.90
2391;DHT22;22957;50.824;4.360;2022-10-30T04:09:43;17.80;99.90
2391;DHT22;22957;50.824;4.360;2022-10-30T04:12:08;17.70;99.90
2391;DHT22;22957;50.824;4.360;2022-10-30T04:14:34;18.00;99.90
2391;DHT22;22957;50.824;4.360;2022-10-30T04:16:59;18.10;99.90
2391;DHT22;22957;50.824;4.360;2022-10-30T04:19:25;18.10;99.90
2391;DHT22;22957;50.824;4.360;2022-10-30T04:21:51;18.10;99.90
2391;DHT22;22957;50.824;4.360;2022-10-30T04:24:16;18.00;99.90
2391;DHT22;22957;50.824;4.360;2022-10-30T04:26:43;18.20;99.90
2391;DHT22;22957;50.824;4.360;2022-10-30T04:29:09;18.00;99.90
2391;DHT22;22957;50.824;4.360;2022-10-30T04:31:35;18.00;99.90
2391;DHT22;22957;50.824;4.360;2022-10-30T04:34:00;18.10;99.90
2391;DHT22;22957;50.824;4.360;2022-10-30T04:36:26;17.80;99.90
2391;DHT22;22957;50.824;4.360;2022-10-30T04:38:57;17.80;99.90
2391;DHT22;22957;50.824;4.360;2022-10-30T04:41:23;17.90;99.90
2391;DHT22;22957;50.824;4.360;2022-10-30T04:43:50;17.70;99.90
2391;DHT22;22957;50.824;4.360;2022-10-30T04:46:16;17.90;99.90
2391;DHT22;22957;50.824;4.360;2022-10-30T04:48:42;17.80;99.90
2391;DHT22;22957;50.824;4.360;2022-10-30T04:51:08;17.70;99.90
2391;DHT22;22957;50.824;4.360;2022-10-30T04:53:37;17.60;99.90
2391;DHT22;22957;50.824;4.360;2022-10-30T04:56:03;17.40;99.90
2391;DHT22;22957;50.824;4.360;2022-10-30T04:58:29;17.50;99.90
2391;DHT22;22957;50.824;4.360;2022-10-30T05:00:59;17.50;99.90
2391;DHT22;22957;50.824;4.360;2022-10-30T05:03:26;17.60;99.90
2391;DHT22;22957;50.824;4.360;2022-10-30T05:06:04;17.60;99.90
2391;DHT22;22957;50.824;4.360;2022-10-30T05:08:32;17.60;99.90
2391;DHT22;22957;50.824;4.360;2022-10-30T05:11:04;17.50;99.90
2391;DHT22;22957;50.824;4.360;2022-10-30T05:13:30;17.50;99.90
2391;DHT22;22957;50.824;4.360;2022-10-30T05:16:00;17.40;99.90
2391;DHT22;22957;50.824;4.360;2022-10-30T05:18:28;17.20;99.90
2391;DHT22;22957;50.824;4.360;2022-10-30T05:20:57;17.30;99.90
2391;DHT22;22957;50.824;4.360;2022-10-30T05:23:24;17.30;99.90
2391;DHT22;22957;50.824;4.360;2022-10-30T05:25:59;17.50;99.90
2391;DHT22;22957;50.824;4.360;2022-10-30T05:28:28;17.50;99.90
2391;DHT22;22957;50.824;4.360;2022-10-30T05:30:56;17.60;99.90
2391;DHT22;22957;50.824;4.360;2022-10-30T05:33:23;17.50;99.90
2391;DHT22;22957;50.824;4.360;2022-10-30T05:35:55;17.40;99.90
2391;DHT22;22957;50.824;4.360;2022-10-30T05:38:24;17.30;99.90
2391;DHT22;22957;50.824;4.360;2022-10-30T05:40:52;17.30;99.90
2391;DHT22;22957;50.824;4.360;2022-10-30T05:43:22;17.40;99.90
2391;DHT22;22957;50.824;4.360;2022-10-30T05:45:51;17.40;99.90
2391;DHT22;22957;50.824;4.360;2022-10-30T05:48:18;17.40;99.90
2391;DHT22;22957;50.824;4.360;2022-10-30T05:50:47;17.30;99.90
2391;DHT22;22957;50.824;4.360;2022-10-30T05:53:14;17.40;99.90
2391;DHT22;22957;50.824;4.360;2022-10-30T05:55:42;17.20;99.90
2391;DHT22;22957;50.824;4.360;2022-10-30T05:58:09;17.30;99.90
2391;DHT22;22957;50.824;4.360;2022-10-30T06:00:35;17.20;99.90
2391;DHT22;22957;50.824;4.360;2022-10-30T06:03:12;17.20;99.90
2391;DHT22;22957;50.824;4.360;2022-10-30T06:05:38;17.10;99.90
2391;DHT22;22957;50.824;4.360;2022-10-30T06:08:08;17.20;99.90
2391;DHT22;22957;50.824;4.360;2022-10-30T06:10:36;17.20;99.90
2391;DHT22;22957;50.824;4.360;2022-10-30T06:13:20;17.20;99.90
2391;DHT22;22957;50.824;4.360;2022-10-30T06:15:54;17.10;99.90
2391;DHT22;22957;50.824;4.360;2022-10-30T06:18:21;17.10;99.90
2391;DHT22;22957;50.824;4.360;2022-10-30T06:20:54;17.20;99.90
2391;DHT22;22957;50.824;4.360;2022-10-30T06:23:37;17.20;99.90
2391;DHT22;22957;50.824;4.360;2022-10-30T06:26:06;17.30;99.90
2391;DHT22;22957;50.824;4.360;2022-10-30T06:28:34;17.20;99.90
2391;DHT22;22957;50.824;4.360;2022-10-30T06:31:00;17.30;99.90
2391;DHT22;22957;50.824;4.360;2022-10-30T06:33:26;17.20;99.90
2391;DHT22;22957;50.824;4.360;2022-10-30T06:36:10;17.30;99.90
2391;DHT22;22957;50.824;4.360;2022-10-30T06:38:38;17.20;99.90
2391;DHT22;22957;50.824;4.360;2022-10-30T06:41:13;17.00;99.90
2391;DHT22;22957;50.824;4.360;2022-10-30T06:43:39;17.30;99.90
2391;DHT22;22957;50.824;4.360;2022-10-30T06:46:05;17.40;99.90
2391;DHT22;22957;50.824;4.360;2022-10-30T06:48:31;17.40;99.90
2391;DHT22;22957;50.824;4.360;2022-10-30T06:50:59;17.60;99.90
2391;DHT22;22957;50.824;4.360;2022-10-30T06:53:28;17.10;99.90
2391;DHT22;22957;50.824;4.360;2022-10-30T06:55:58;17.60;99.90
2391;DHT22;22957;50.824;4.360;2022-10-30T06:58:26;17.40;99.90
2391;DHT22;22957;50.824;4.360;2022-10-30T07:00:52;17.60;99.90
2391;DHT22;22957;50.824;4.360;2022-10-30T07:03:18;17.40;99.90
2391;DHT22;22957;50.824;4.360;2022-10-30T07:05:44;17.40;99.90
2391;DHT22;22957;50.824;4.360;2022-10-30T07:08:09;17.60;99.90
2391;DHT22;22957;50.824;4.360;2022-10-30T07:10:36;17.40;99.90
2391;DHT22;22957;50.824;4.360;2022-10-30T07:13:01;17.60;99.90
2391;DHT22;22957;50.824;4.360;2022-10-30T07:15:28;17.70;99.90
2391;DHT22;22957;50.824;4.360;2022-10-30T07:17:56;17.70;99.90
2391;DHT22;22957;50.824;4.360;2022-10-30T07:20:22;18.30;99.90
2391;DHT22;22957;50.824;4.360;2022-10-30T07:22:49;18.60;99.90
2391;DHT22;22957;50.824;4.360;2022-10-30T07:25:15;19.10;99.90
2391;DHT22;22957;50.824;4.360;2022-10-30T07:27:46;19.40;99.90
2391;DHT22;22957;50.824;4.360;2022-10-30T07:30:14;19.60;99.90
2391;DHT22;22957;50.824;4.360;2022-10-30T07:32:41;19.60;99.90
2391;DHT22;22957;50.824;4.360;2022-10-30T07:35:08;19.70;99.90
2391;DHT22;22957;50.824;4.360;2022-10-30T07:37:34;19.80;99.90
2391;DHT22;22957;50.824;4.360;2022-10-30T07:40:00;19.90;99.90
2391;DHT22;22957;50.824;4.360;2022-10-30T07:42:25;20.10;99.90
2391;DHT22;22957;50.824;4.360;2022-10-30T07:44:53;20.10;99.90
2391;DHT22;22957;50.824;4.360;2022-10-30T07:47:19;20.20;99.90
2391;DHT22;22957;50.824;4.360;2022-10-30T07:49:44;20.10;99.90
2391;DHT22;22957;50.824;4.360;2022-10-30T07:52:10;20.20;99.90
2391;DHT22;22957;50.824;4.360;2022-10-30T07:54:36;19.90;99.90
2391;DHT22;22957;50.824;4.360;2022-10-30T07:57:02;20.20;99.90
2391;DHT22;22957;50.824;4.360;2022-10-30T07:59:28;20.20;99.90
2391;DHT22;22957;50.824;4.360;2022-10-30T08:01:54;20.30;99.90
2391;DHT22;22957;50.824;4.360;2022-10-30T08:04:20;20.30;99.90
2391;DHT22;22957;50.824;4.360;2022-10-30T08:06:46;20.40;99.90
2391;DHT22;22957;50.824;4.360;2022-10-30T08:09:11;20.60;99.90
2391;DHT22;22957;50.824;4.360;2022-10-30T08:11:37;20.90;99.90
2391;DHT22;22957;50.824;4.360;2022-10-30T08:14:03;21.20;99.90
2391;DHT22;22957;50.824;4.360;2022-10-30T08:16:29;21.40;99.90
2391;DHT22;22957;50.824;4.360;2022-10-30T08:18:55;21.60;99.90
2391;DHT22;22957;50.824;4.360;2022-10-30T08:21:20;21.70;99.90
2391;DHT22;22957;50.824;4.360;2022-10-30T08:23:46;21.60;99.90
2391;DHT22;22957;50.824;4.360;2022-10-30T08:26:13;21.30;99.90
2391;DHT22;22957;50.824;4.360;2022-10-30T08:28:38;21.20;99.90
2391;DHT22;22957;50.824;4.360;2022-10-30T08:31:04;21.20;99.90
2391;DHT22;22957;50.824;4.360;2022-10-30T08:33:30;21.10;99.90
2391;DHT22;22957;50.824;4.360;2022-10-30T08:35:58;21.20;99.90
2391;DHT22;22957;50.824;4.360;2022-10-30T08:38:24;21.20;99.90
2391;DHT22;22957;50.824;4.360;2022-10-30T08:40:55;21.00;99.90
2391;DHT22;22957;50.824;4.360;2022-10-30T08:43:21;21.30;99.90
2391;DHT22;22957;50.824;4.360;2022-10-30T08:45:49;21.10;99.90
2391;DHT22;22957;50.824;4.360;2022-10-30T08:48:15;21.00;99.90
2391;DHT22;22957;50.824;4.360;2022-10-30T08:50:41;21.50;99.90
2391;DHT22;22957;50.824;4.360;2022-10-30T08:53:10;22.00;99.90
2391;DHT22;22957;50.824;4.360;2022-10-30T08:55:36;22.10;99.90
2391;DHT22;22957;50.824;4.360;2022-10-30T08:58:02;22.40;99.90
2391;DHT22;22957;50.824;4.360;2022-10-30T09:00:28;22.60;99.90
2391;DHT22;22957;50.824;4.360;2022-10-30T09:02:55;22.80;99.90
2391;DHT22;22957;50.824;4.360;2022-10-30T09:05:21;22.80;99.90
2391;DHT22;22957;50.824;4.360;2022-10-30T09:07:47;23.10;99.90
2391;DHT22;22957;50.824;4.360;2022-10-30T09:10:13;23.10;99.90
2391;DHT22;22957;50.824;4.360;2022-10-30T09:12:39;23.50;99.90
2391;DHT22;22957;50.824;4.360;2022-10-30T09:15:05;23.40;99.90
2391;DHT22;22957;50.824;4.360;2022-10-30T09:17:31;23.80;99.90
2391;DHT22;22957;50.824;4.360;2022-10-30T09:19:58;24.00;99.90
2391;DHT22;22957;50.824;4.360;2022-10-30T09:22:23;24.20;99.90
2391;DHT22;22957;50.824;4.360;2022-10-30T09:24:49;24.40;99.90
2391;DHT22;22957;50.824;4.360;2022-10-30T09:27:16;24.10;99.90
2391;DHT22;22957;50.824;4.360;2022-10-30T09:29:42;24.40;99.90
2391;DHT22;22957;50.824;4.360;2022-10-30T09:32:10;24.40;99.90
2391;DHT22;22957;50.824;4.360;2022-10-30T09:34:38;24.50;99.90
2391;DHT22;22957;50.824;4.360;2022-10-30T09:37:04;24.30;99.90
2391;DHT22;22957;50.824;4.360;2022-10-30T09:39:30;24.80;99.90
2391;DHT22;22957;50.824;4.360;2022-10-30T09:47:23;25.10;99.90
2391;DHT22;22957;50.824;4.360;2022-10-30T09:53:07;25.60;99.90
2391;DHT22;22957;50.824;4.360;2022-10-30T10:04:07;25.90;99.90
2391;DHT22;22957;50.824;4.360;2022-10-30T10:06:43;26.10;99.90
2391;DHT22;22957;50.824;4.360;2022-10-30T10:09:37;26.40;99.90
2391;DHT22;22957;50.824;4.360;2022-10-30T10:12:19;26.60;99.90
2391;DHT22;22957;50.824;4.360;2022-10-30T10:14:46;25.30;99.90
2391;DHT22;22957;50.824;4.360;2022-10-30T10:17:30;25.50;99.90
2391;DHT22;22957;50.824;4.360;2022-10-30T10:20:00;25.30;99.90
2391;DHT22;22957;50.824;4.360;2022-10-30T10:22:31;25.00;99.90
2391;DHT22;22957;50.824;4.360;2022-10-30T10:25:11;24.60;99.90
2391;DHT22;22957;50.824;4.360;2022-10-30T10:30:23;24.30;99.90
2391;DHT22;22957;50.824;4.360;2022-10-30T10:48:40;23.40;99.90
2391;DHT22;22957;50.824;4.360;2022-10-30T10:53:59;23.60;99.90
2391;DHT22;22957;50.824;4.360;2022-10-30T10:56:35;23.60;99.90
2391;DHT22;22957;50.824;4.360;2022-10-30T10:59:05;23.80;99.90
2391;DHT22;22957;50.824;4.360;2022-10-30T11:01:42;23.70;99.90
2391;DHT22;22957;50.824;4.360;2022-10-30T11:04:19;23.70;99.90
2391;DHT22;22957;50.824;4.360;2022-10-30T11:06:51;23.40;99.90
2391;DHT22;22957;50.824;4.360;2022-10-30T11:09:23;23.60;99.90
2391;DHT22;22957;50.824;4.360;2022-10-30T11:11:53;23.70;99.90
2391;DHT22;22957;50.824;4.360;2022-10-30T11:14:27;23.80;99.90
2391;DHT22;22957;50.824;4.360;2022-10-30T11:17:21;24.20;99.90
2391;DHT22;22957;50.824;4.360;2022-10-30T11:19:54;24.10;99.90
2391;DHT22;22957;50.824;4.360;2022-10-30T11:22:38;24.40;99.90
2391;DHT22;22957;50.824;4.360;2022-10-30T11:25:25;24.40;99.90
2391;DHT22;22957;50.824;4.360;2022-10-30T11:28:14;24.60;99.90
2391;DHT22;22957;50.824;4.360;2022-10-30T11:30:52;24.60;99.90
2391;DHT22;22957;50.824;4.360;2022-10-30T11:33:38;24.80;99.90
2391;DHT22;22957;50.824;4.360;2022-10-30T11:36:08;25.00;99.90
2391;DHT22;22957;50.824;4.360;2022-10-30T11:38:34;24.90;99.90
2391;DHT22;22957;50.824;4.360;2022-10-30T11:41:01;24.90;99.90
2391;DHT22;22957;50.824;4.360;2022-10-30T11:43:28;24.50;99.90
2391;DHT22;22957;50.824;4.360;2022-10-30T11:45:54;24.70;99.90
2391;DHT22;22957;50.824;4.360;2022-10-30T11:48:27;24.20;99.90
2391;DHT22;22957;50.824;4.360;2022-10-30T11:50:59;24.10;99.90
2391;DHT22;22957;50.824;4.360;2022-10-30T11:55:58;23.50;99.90
2391;DHT22;22957;50.824;4.360;2022-10-30T11:58:54;23.40;99.90
2391;DHT22;22957;50.824;4.360;2022-10-30T12:03:53;23.10;99.90
2391;DHT22;22957;50.824;4.360;2022-10-30T12:06:28;23.10;99.90
2391;DHT22;22957;50.824;4.360;2022-10-30T12:11:46;23.10;99.90
2391;DHT22;22957;50.824;4.360;2022-10-30T12:14:23;23.10;99.90
2391;DHT22;22957;50.824;4.360;2022-10-30T12:16:57;23.40;99.90
2391;DHT22;22957;50.824;4.360;2022-10-30T12:19:25;23.40;99.90
2391;DHT22;22957;50.824;4.360;2022-10-30T12:21:53;23.60;99.90
2391;DHT22;22957;50.824;4.360;2022-10-30T12:24:31;23.70;99.90
2391;DHT22;22957;50.824;4.360;2022-10-30T12:27:12;23.60;99.90
2391;DHT22;22957;50.824;4.360;2022-10-30T12:32:37;23.90;99.90
2391;DHT22;22957;50.824;4.360;2022-10-30T12:35:21;23.90;99.90
2391;DHT22;22957;50.824;4.360;2022-10-30T12:37:56;23.80;99.90
2391;DHT22;22957;50.824;4.360;2022-10-30T12:40:34;23.80;99.90
2391;DHT22;22957;50.824;4.360;2022-10-30T12:45:40;24.10;99.90
2391;DHT22;22957;50.824;4.360;2022-10-30T12:48:30;24.50;99.90
2391;DHT22;22957;50.824;4.360;2022-10-30T12:53:56;24.30;99.90
2391;DHT22;22957;50.824;4.360;2022-10-30T12:56:59;24.60;99.90
2391;DHT22;22957;50.824;4.360;2022-10-30T12:59:42;24.60;99.90
2391;DHT22;22957;50.824;4.360;2022-10-30T13:05:06;24.80;99.90
2391;DHT22;22957;50.824;4.360;2022-10-30T13:07:44;24.70;99.90
2391;DHT22;22957;50.824;4.360;2022-10-30T13:10:30;24.30;99.90
2391;DHT22;22957;50.824;4.360;2022-10-30T13:13:02;24.20;99.90
2391;DHT22;22957;50.824;4.360;2022-10-30T13:15:52;23.90;99.90
2391;DHT22;22957;50.824;4.360;2022-10-30T13:18:21;23.90;99.90
2391;DHT22;22957;50.824;4.360;2022-10-30T13:26:40;23.80;99.90
2391;DHT22;22957;50.824;4.360;2022-10-30T13:40:04;23.80;99.90
2391;DHT22;22957;50.824;4.360;2022-10-30T13:42:56;23.50;99.90
2391;DHT22;22957;50.824;4.360;2022-10-30T13:53:36;23.50;99.90
2391;DHT22;22957;50.824;4.360;2022-10-30T13:56:05;23.20;99.90
2391;DHT22;22957;50.824;4.360;2022-10-30T13:58:38;23.20;99.90
2391;DHT22;22957;50.824;4.360;2022-10-30T14:09:49;22.70;99.90
2391;DHT22;22957;50.824;4.360;2022-10-30T14:15:40;23.20;99.90
2391;DHT22;22957;50.824;4.360;2022-10-30T14:20:45;23.20;99.90
2391;DHT22;22957;50.824;4.360;2022-10-30T14:28:35;22.70;99.90
2391;DHT22;22957;50.824;4.360;2022-10-30T14:31:36;22.80;99.90
2391;DHT22;22957;50.824;4.360;2022-10-30T14:34:25;22.20;99.90
2391;DHT22;22957;50.824;4.360;2022-10-30T14:36:51;21.90;99.90
2391;DHT22;22957;50.824;4.360;2022-10-30T14:50:30;22.20;99.90
2391;DHT22;22957;50.824;4.360;2022-10-30T15:10:32;21.10;99.90
2391;DHT22;22957;50.824;4.360;2022-10-30T15:13:18;21.10;99.90
2391;DHT22;22957;50.824;4.360;2022-10-30T15:16:11;21.30;99.90
2391;DHT22;22957;50.824;4.360;2022-10-30T15:18:54;21.20;99.90
2391;DHT22;22957;50.824;4.360;2022-10-30T15:21:24;21.40;99.90
2391;DHT22;22957;50.824;4.360;2022-10-30T15:23:57;21.50;99.90
2391;DHT22;22957;50.824;4.360;2022-10-30T15:26:46;21.40;99.90
2391;DHT22;22957;50.824;4.360;2022-10-30T15:29:23;21.30;99.90
2391;DHT22;22957;50.824;4.360;2022-10-30T15:32:00;21.20;99.90
2391;DHT22;22957;50.824;4.360;2022-10-30T15:34:36;20.90;99.90
2391;DHT22;22957;50.824;4.360;2022-10-30T15:37:18;20.70;99.90
2391;DHT22;22957;50.824;4.360;2022-10-30T15:39:46;20.90;99.90
2391;DHT22;22957;50.824;4.360;2022-10-30T15:42:33;20.70;99.90
2391;DHT22;22957;50.824;4.360;2022-10-30T15:45:24;20.50;99.90
2391;DHT22;22957;50.824;4.360;2022-10-30T15:48:31;20.00;99.90
2391;DHT22;22957;50.824;4.360;2022-10-30T15:51:04;20.40;99.90
2391;DHT22;22957;50.824;4.360;2022-10-30T15:54:18;20.30;99.90
2391;DHT22;22957;50.824;4.360;2022-10-30T15:56:59;20.40;99.90
2391;DHT22;22957;50.824;4.360;2022-10-30T15:59:28;20.40;99.90
2391;DHT22;22957;50.824;4.360;2022-10-30T16:02:19;20.10;99.90
2391;DHT22;22957;50.824;4.360;2022-10-30T16:04:55;20.00;99.90
2391;DHT22;22957;50.824;4.360;2022-10-30T16:07:44;20.10;99.90
2391;DHT22;22957;50.824;4.360;2022-10-30T16:10:15;19.90;99.90
2391;DHT22;22957;50.824;4.360;2022-10-30T16:12:45;19.80;99.90
2391;DHT22;22957;50.824;4.360;2022-10-30T16:15:39;19.80;99.90
2391;DHT22;22957;50.824;4.360;2022-10-30T16:18:29;19.70;99.90
2391;DHT22;22957;50.824;4.360;2022-10-30T16:23:39;20.00;99.90
2391;DHT22;22957;50.824;4.360;2022-10-30T16:26:34;19.90;99.90
2391;DHT22;22957;50.824;4.360;2022-10-30T16:29:32;19.80;99.90
2391;DHT22;22957;50.824;4.360;2022-10-30T16:35:09;19.80;99.90
2391;DHT22;22957;50.824;4.360;2022-10-30T16:37:56;19.90;99.90
2391;DHT22;22957;50.824;4.360;2022-10-30T16:40:46;19.90;99.90
2391;DHT22;22957;50.824;4.360;2022-10-30T16:46:37;19.80;99.90
2391;DHT22;22957;50.824;4.360;2022-10-30T16:49:22;19.80;99.90
2391;DHT22;22957;50.824;4.360;2022-10-30T16:51:59;19.70;99.90
2391;DHT22;22957;50.824;4.360;2022-10-30T16:54:48;19.60;99.90
2391;DHT22;22957;50.824;4.360;2022-10-30T16:57:42;19.80;99.90
2391;DHT22;22957;50.824;4.360;2022-10-30T17:00:49;19.60;99.90
2391;DHT22;22957;50.824;4.360;2022-10-30T17:03:20;19.60;99.90
2391;DHT22;22957;50.824;4.360;2022-10-30T17:06:37;19.50;99.90
2391;DHT22;22957;50.824;4.360;2022-10-30T17:09:24;19.30;99.90
2391;DHT22;22957;50.824;4.360;2022-10-30T17:12:17;19.10;99.90
2391;DHT22;22957;50.824;4.360;2022-10-30T17:15:39;19.10;99.90
2391;DHT22;22957;50.824;4.360;2022-10-30T17:18:14;19.30;99.90
2391;DHT22;22957;50.824;4.360;2022-10-30T17:20:43;19.10;99.90
2391;DHT22;22957;50.824;4.360;2022-10-30T17:23:33;19.00;99.90
2391;DHT22;22957;50.824;4.360;2022-10-30T17:26:08;19.20;99.90
2391;DHT22;22957;50.824;4.360;2022-10-30T17:28:41;19.00;99.90
2391;DHT22;22957;50.824;4.360;2022-10-30T17:31:30;19.30;99.90
2391;DHT22;22957;50.824;4.360;2022-10-30T17:34:18;19.20;99.90
2391;DHT22;22957;50.824;4.360;2022-10-30T17:36:53;19.10;99.90
2391;DHT22;22957;50.824;4.360;2022-10-30T17:39:28;19.00;99.90
2391;DHT22;22957;50.824;4.360;2022-10-30T17:42:15;18.90;99.90
2391;DHT22;22957;50.824;4.360;2022-10-30T17:44:57;18.70;99.90
2391;DHT22;22957;50.824;4.360;2022-10-30T17:50:21;18.60;99.90
2391;DHT22;22957;50.824;4.360;2022-10-30T17:53:37;18.70;99.90
2391;DHT22;22957;50.824;4.360;2022-10-30T17:56:32;18.50;99.90
2391;DHT22;22957;50.824;4.360;2022-10-30T17:59:01;18.30;99.90
2391;DHT22;22957;50.824;4.360;2022-10-30T18:01:30;18.40;99.90
2391;DHT22;22957;50.824;4.360;2022-10-30T18:04:33;18.40;99.90
2391;DHT22;22957;50.824;4.360;2022-10-30T18:07:41;18.40;99.90
2391;DHT22;22957;50.824;4.360;2022-10-30T18:10:08;18.20;99.90
2391;DHT22;22957;50.824;4.360;2022-10-30T18:12:34;17.90;99.90
2391;DHT22;22957;50.824;4.360;2022-10-30T18:15:21;18.10;99.90
2391;DHT22;22957;50.824;4.360;2022-10-30T18:18:00;17.90;99.90
2391;DHT22;22957;50.824;4.360;2022-10-30T18:20:26;18.20;99.90
2391;DHT22;22957;50.824;4.360;2022-10-30T18:22:53;18.30;99.90
2391;DHT22;22957;50.824;4.360;2022-10-30T18:25:30;18.40;99.90
2391;DHT22;22957;50.824;4.360;2022-10-30T18:27:57;18.50;99.90
2391;DHT22;22957;50.824;4.360;2022-10-30T18:30:42;18.30;99.90
2391;DHT22;22957;50.824;4.360;2022-10-30T18:44:19;18.20;99.90
2391;DHT22;22957;50.824;4.360;2022-10-30T18:46:47;18.50;99.90
2391;DHT22;22957;50.824;4.360;2022-10-30T18:49:14;18.60;99.90
2391;DHT22;22957;50.824;4.360;2022-10-30T18:51:43;18.40;99.90
2391;DHT22;22957;50.824;4.360;2022-10-30T18:54:15;18.60;99.90
2391;DHT22;22957;50.824;4.360;2022-10-30T18:56:43;18.20;99.90
2391;DHT22;22957;50.824;4.360;2022-10-30T18:59:32;18.30;99.90
2391;DHT22;22957;50.824;4.360;2022-10-30T19:02:34;18.10;99.90
2391;DHT22;22957;50.824;4.360;2022-10-30T19:08:18;18.20;99.90
2391;DHT22;22957;50.824;4.360;2022-10-30T19:11:05;18.40;99.90
2391;DHT22;22957;50.824;4.360;2022-10-30T19:13:51;18.50;99.90
2391;DHT22;22957;50.824;4.360;2022-10-30T19:16:34;18.20;99.90
2391;DHT22;22957;50.824;4.360;2022-10-30T19:19:01;18.20;99.90
2391;DHT22;22957;50.824;4.360;2022-10-30T19:21:32;18.20;99.90
2391;DHT22;22957;50.824;4.360;2022-10-30T19:24:12;18.40;99.90